Local Weather Ingen bokad jour idag Tuesday 29th of September
Flygplats METAR TAF
Airport METAR TAF
ESSL - Linköping292050Z 00000KT 9999 MIFG NSC 07/07 Q1018= NO VALID TAF PUBLISHED
ESCF - Malmen292050Z AUTO 18002KT 0150 0100// R01/0500V1900U R19/0275V0550N FG NCD 07/07 Q1018= 291430Z 2915/2920 29005KT 9999 SCT030 BECMG 2915/2916 VRB02KT PROB30 2919/2920 8000 MIFG NSC RMK MIL=
ESSP - Norrköping292050Z AUTO 14001KT 0150 R09/0450N R27/0600N FG NCD 08/08 Q1018= NO VALID TAF PUBLISHED
ESGJ - Jönköping292050Z 00000KT CAVOK 04/04 Q1018= 292030Z 2921/3001 VRB02KT CAVOK TEMPO 2921/3001 0300 FG VV002=
ESKN - Skavsta292050Z 00000KT 5000 R08/0800N R26/P2000N BCFG BKN044 11/11 Q1018= AMD 292021Z 2920/3018 VRB02KT 8000 SCT040 PROB40 2920/3007 0500 BCFG BKN003=
ESSV - Visby292050Z AUTO 14002KT 9000 NCD 08/07 Q1019= 291730Z 2918/2922 22003KT CAVOK=
ESGG - Göteborg292050Z 13005KT 9999 SCT033 OVC051 11/09 Q1017= 291730Z 2918/3018 14005KT 9999 BKN040 PROB40 2922/3007 2000 BCFG=
FLEET STATUS
Flygplan Tid till service Tid till flygstopp Flygtid Landningar
Aircraft To service To stop Total time Landings
SE-IUD6.7 h16.7 h12 093.3 h24 588 st.
(1) Vacuumfel - vilket påverkar horisongyrot
(2) OBS Kyrsgyrot är utmonterat. Maskinen är endast VFR
SE-KIT42.2 h52.2 h12 257.8 h23 849 st.
SE-KMH13.5 h18.5 h16 336.5 h61 052 st.
SE-LRL-9.6 h0.4 h1 059.6 h2 014 st.
SE-MEB29.5 h34.5 h1 620.5 h4 951 st.
(1) Motorstörning
SE-MEKN/AN/A3 615.0 h3 362 st.
(1) Generator laddar ej
(2) Radiokoppel förarsida U/S, dålig hörbarhet i höger radiokoppel, ötc läste 1:a knappt hörbart. Provade byta headset utan framgång.
PPR
Ankomst Avgång Flygplan Namn Bränsle
Arrival Departure Aircraft Name Fuel
NOTAM
>>> ESSL/LINKOPING/SAAB <<<
+ AERODROME CLSD DUE TO SERVICE OF BACK UP POWER SYSTEM FROM: 30 SEP 2020 15:00 TO: 30 SEP 2020 19:45
+ AERODROME CONTROL TOWER (TWR) HOURS OF SERVICE ARE NOW MON 0345-1500, TUE-FRI 0515-1500, SAT-SUN 1300-1445. FROM: 28 SEP 2020 00:00 TO: 04 OCT 2020 23:59
+ AUXILIARY POWER LIMITED. IN CASE OF POWER OUTAGE APCH-LIGHTS AND PAPI WILL BE U/S DURING SWITCHING TIME, MAXIMUM UP TO 30 SECONDS. FROM: 21 SEP 2020 19:45 TO: 02 OCT 2020 16:00
+ AERODROME CAUTION ADVISED SHALLOW DITCHES SOUTH OF RWY 11/29 DUE WIP. FROM: 14 SEP 2020 07:36 TO: 30 NOV 2020 12:00 EST
+ OSTGOTA APPROACH CONTROL SERVICE (APP) HOURS OF SERVICE CHANGE TO MON-SUN 0430-2100. SERVICE PROVIDED ACCORDING TO ES AIP ENR 2.1 FROM: 14 SEP 2020 08:26 TO: 24 OCT 2020 23:59
>>> ESSP/NORRKOPING/KUNGSANGEN <<<
+ AERODROME CONTROL TOWER (TWR) HOURS OF SERVICE ARE NOW MON-FRI 0600-1300, SAT-SUN CLSD FROM: 28 SEP 2020 00:00 TO: 18 OCT 2020 23:59
+ FUEL AVAILABILITY HOURS OF SERVICE ARE NOW MON-FRI 0600-1200, SAT-SUN CLSD FROM: 28 SEP 2020 00:00 TO: 18 OCT 2020 23:59
+ CRANE ERECTED IN APCH RWY09 PSN 583451N0161020E HGT 224FT AGL ELEV 348FT AMSL. LGTD F R. SCHEDULE: MON-FRI 0500-1400 FROM: 16 SEP 2020 12:47 TO: 29 OCT 2020 14:00
+ DUE CRANE ERECTED, OCA(OCH)CHANGED FOR LOC APCH RWY 09: 600FT(580FT) OCA(OCH)CHANGED FOR CIRCLING S RWY 09/27 CAT B: 650FT(610FT) OCA(OCH)CHANGED FOR NDB APCH RWY 27: 600FT(568FT) OCA(OCH)CHANGED FOR RNP LNAV APCH RWY 09: 600FT(587FT) OCA(OCH)CHANGED FOR RNP LNAV/VNAV APCH RWY 09: CAT A 480FT(467FT), CAT B 490FT(477FT), CAT C 500FT(487FT), CAT D 510FT(497FT). SCHEDULE: MON-FRI 0500-1400 FROM: 16 SEP 2020 12:50 TO: 29 OCT 2020 14:00
+ OSTGOTA APPROACH CONTROL SERVICE (APP) HOURS OF SERVICE CHANGE TO MON-SUN 0430-2100. SERVICE PROVIDED ACCORDING TO ES AIP ENR 2.1 FROM: 14 SEP 2020 08:21 TO: 24 OCT 2020 23:59
+ OCA/OCH CHANGED FOR NDB APCH RWY 27: 540FT (508FT) CIRCLING SOUTH RWY 09/27 CHANGED CAT A OCA (OCH) 590FT (550FT) REF ES AIP AD ESSP 5-2 FROM: 28 AUG 2020 11:14 TO: 16 OCT 2020 18:00
>>> ESCF/LINKOPING/MALMEN <<<
+ DE-ICING ONLY AVAILABLE FOR AIRCRAFT BASED AT LINKOPING/MALMEN AERODROME. FROM: 15 SEP 2020 06:31 TO: 15 DEC 2020 12:00 EST
+ OSTGOTA APPROACH CONTROL SERVICE (APP) HOURS OF SERVICE CHANGE TO MON-SUN 0430-2100. SERVICE PROVIDED ACCORDING TO ES AIP ENR 2.1 FROM: 14 SEP 2020 08:27 TO: 24 OCT 2020 23:59